Time;durP1;ratioP1;P1;durP2;ratioP2;P2;SDS_P1;SDS_P2;PMS_P1;PMS_P2;Temp;Humidity;BMP_temperature;BMP_pressure;BME280_temperature;BME280_humidity;BME280_pressure;Samples;Min_cycle;Max_cycle;Signal;HPM_P1;HPM_P2
2021/10/17 14:05:36;;;;;;;7.57;3.95;;;;;;;16.37;43.32;100031.53;5128172;27;20418;-63
2021/10/17 14:08:06;;;;;;;8.13;3.97;;;;;;;15.59;46.13;100037.19;5144596;27;20055;-63
2021/10/17 14:10:35;;;;;;;9.90;3.42;;;;;;;15.54;46.35;100038.97;5136048;27;20043;-64
2021/10/17 14:13:07;;;;;;;7.18;3.75;;;;;;;15.40;44.70;100030.59;5122590;27;20048;-63
2021/10/17 14:15:38;;;;;;;7.40;3.80;;;;;;;15.26;45.31;100032.50;5111091;28;20058;-63
2021/10/17 14:18:11;;;;;;;5.82;3.55;;;;;;;15.32;45.63;100034.97;5111442;28;20040;-63
2021/10/17 14:20:41;;;;;;;9.55;4.00;;;;;;;15.25;45.35;100031.66;5110979;28;20116;-63
2021/10/17 14:23:11;;;;;;;7.15;3.78;;;;;;;15.05;45.25;100012.22;5113780;28;20039;-63
2021/10/17 14:25:40;;;;;;;7.82;4.15;;;;;;;14.95;45.42;100029.47;5131101;27;20126;-63
2021/10/17 14:28:09;;;;;;;8.95;4.15;;;;;;;14.78;46.28;100032.25;5131209;27;20050;-63
2021/10/17 14:30:40;;;;;;;6.10;3.05;;;;;;;14.62;46.97;100030.75;5132027;27;20067;-63
2021/10/17 14:33:10;;;;;;;5.85;3.72;;;;;;;14.52;47.05;100026.56;5131080;28;20045;-63
2021/10/17 14:35:41;;;;;;;6.53;3.83;;;;;;;14.47;46.81;100023.19;5131217;27;20392;-63
2021/10/17 14:38:10;;;;;;;7.50;3.65;;;;;;;14.42;47.42;100032.66;5128593;27;20043;-67
2021/10/17 14:40:47;;;;;;;7.43;3.83;;;;;;;14.36;48.38;100031.91;5126556;28;20058;-63
2021/10/17 14:43:17;;;;;;;8.75;3.55;;;;;;;14.26;49.19;100031.09;5124812;27;20085;-63
2021/10/17 14:45:46;;;;;;;6.93;3.60;;;;;;;14.01;50.50;100022.78;5116674;28;20495;-64
2021/10/17 14:48:20;;;;;;;7.45;4.25;;;;;;;13.92;49.40;100028.00;5131000;27;20046;-64
2021/10/17 14:50:52;;;;;;;6.25;3.45;;;;;;;13.90;49.58;100031.44;5127087;28;20475;-63
2021/10/17 14:53:22;;;;;;;7.70;3.75;;;;;;;13.66;50.34;100009.41;5130584;28;20044;-63
2021/10/17 14:55:51;;;;;;;6.97;3.95;;;;;;;13.75;50.99;100034.16;5130564;27;20096;-63
2021/10/17 14:58:22;;;;;;;6.60;3.88;;;;;;;13.69;50.63;100031.63;5130629;27;20043;-63
2021/10/17 15:00:51;;;;;;;8.10;4.15;;;;;;;13.63;49.92;100034.25;5130558;28;20134;-63
2021/10/17 15:03:21;;;;;;;6.75;3.95;;;;;;;13.61;50.00;100025.69;5130041;28;20061;-63
2021/10/17 15:05:52;;;;;;;8.05;4.22;;;;;;;13.51;50.71;100029.22;5130442;27;20070;-63
2021/10/17 15:08:22;;;;;;;8.00;3.80;;;;;;;13.50;51.46;100035.19;5130584;27;20082;-63
2021/10/17 15:10:52;;;;;;;9.45;5.10;;;;;;;13.53;52.21;100032.59;5130738;27;20484;-63
2021/10/17 15:13:21;;;;;;;9.02;4.75;;;;;;;13.32;53.34;100026.75;5130899;27;20118;-63
2021/10/17 15:15:51;;;;;;;10.15;5.55;;;;;;;13.27;53.67;100038.72;5122888;28;20126;-63
2021/10/17 15:18:20;;;;;;;10.40;6.05;;;;;;;13.20;53.54;100034.50;5116978;28;20043;-63
2021/10/17 15:20:50;;;;;;;10.57;5.80;;;;;;;13.03;54.37;100031.16;5116559;28;20046;-63
2021/10/17 15:23:21;;;;;;;;;;;;;;;12.89;54.80;100032.94;5098600;27;20068;-63
2021/10/17 15:25:50;;;;;;;8.90;4.88;;;;;;;12.95;54.77;100042.31;5096811;28;19919;-63
2021/10/17 15:28:20;;;;;;;9.32;4.55;;;;;;;12.88;55.25;100045.75;5096244;28;20078;-63
2021/10/17 15:30:50;;;;;;;9.65;5.30;;;;;;;12.63;55.56;100022.78;5096706;28;20447;-63
2021/10/17 15:33:21;;;;;;;12.98;5.35;;;;;;;12.73;56.17;100042.41;5096102;28;20040;-63
2021/10/17 15:35:52;;;;;;;12.35;6.43;;;;;;;12.58;56.54;100046.69;5096198;28;20044;-63
2021/10/17 15:38:29;;;;;;;12.95;6.95;;;;;;;12.41;57.56;100038.22;5095238;28;20052;-63
2021/10/17 15:41:00;;;;;;;13.75;6.50;;;;;;;12.28;57.60;100041.66;5095936;28;20056;-63
2021/10/17 15:43:32;;;;;;;8.52;4.72;;;;;;;12.12;57.83;100040.00;5095824;28;20051;-62
2021/10/17 15:46:02;;;;;;;8.95;4.50;;;;;;;11.94;58.49;100028.91;5095664;28;20508;-63
2021/10/17 15:48:50;;;;;;;7.00;4.10;;;;;;;11.89;58.75;100050.22;5096420;28;20047;-63
2021/10/17 15:51:26;;;;;;;7.30;4.15;;;;;;;11.72;59.30;100045.13;5095899;28;20055;-63
2021/10/17 15:54:03;;;;;;;8.45;4.30;;;;;;;11.58;59.65;100057.00;5096147;28;20485;-63
2021/10/17 15:56:36;;;;;;;10.40;4.68;;;;;;;11.34;60.51;100052.72;5096164;28;20048;-63
2021/10/17 15:59:08;;;;;;;8.57;5.05;;;;;;;11.17;60.50;100058.63;5095728;28;20048;-63
2021/10/17 16:01:39;;;;;;;10.13;5.00;;;;;;;11.03;60.76;100060.28;5095592;28;20048;-63
2021/10/17 16:04:16;;;;;;;10.32;4.78;;;;;;;10.91;61.03;100060.22;5094807;28;20101;-63
2021/10/17 16:06:45;;;;;;;12.38;5.13;;;;;;;10.72;61.35;100044.81;5095639;28;20059;-63
2021/10/17 16:09:16;;;;;;;12.15;5.45;;;;;;;10.71;61.83;100058.44;5095943;28;20052;-62
2021/10/17 16:11:48;;;;;;;9.43;5.00;;;;;;;10.65;62.01;100068.63;5095500;28;20040;-63
2021/10/17 16:14:17;;;;;;;8.85;4.68;;;;;;;10.63;61.87;100065.19;5093429;28;20109;-60
2021/10/17 16:16:46;;;;;;;8.87;4.73;;;;;;;10.44;62.08;100070.19;5092691;28;20515;-63
2021/10/17 16:19:16;;;;;;;9.38;4.75;;;;;;;10.36;62.48;100075.28;5094949;28;20048;-63
2021/10/17 16:21:46;;;;;;;9.85;4.40;;;;;;;10.18;63.35;100075.13;5095176;28;20048;-63
2021/10/17 16:24:16;;;;;;;8.50;4.40;;;;;;;10.09;63.23;100082.69;5095241;28;20486;-63
2021/10/17 16:26:46;;;;;;;9.07;5.10;;;;;;;10.08;63.90;100091.16;5094462;28;20044;-63
2021/10/17 16:29:15;;;;;;;8.07;4.68;;;;;;;9.96;64.13;100084.28;5094860;28;20054;-62
2021/10/17 16:31:51;;;;;;;13.80;5.43;;;;;;;9.89;64.27;100086.75;5095311;28;20046;-63
2021/10/17 16:34:21;;;;;;;16.65;8.68;;;;;;;9.84;64.37;100088.41;5095572;28;20410;-62
2021/10/17 16:36:50;;;;;;;;;;;;;;;9.80;64.38;100096.88;5095652;28;20521;-63
2021/10/17 16:39:21;;;;;;;149.40;59.57;;;;;;;9.77;64.51;100096.84;5094301;28;20027;-63
2021/10/17 16:41:50;;;;;;;96.70;41.17;;;;;;;9.79;64.76;100097.75;5094859;28;20135;-63
2021/10/17 16:44:20;;;;;;;56.95;24.95;;;;;;;9.75;64.75;100104.50;5094711;28;20119;-63
2021/10/17 16:46:50;;;;;;;34.97;15.40;;;;;;;9.72;65.51;100103.59;5094703;28;20086;-63
2021/10/17 16:49:19;;;;;;;20.75;9.93;;;;;;;9.65;65.63;100112.03;5094716;28;20127;-63
2021/10/17 16:51:52;;;;;;;17.38;8.98;;;;;;;9.43;65.64;100111.81;5094381;28;20039;-63
2021/10/17 16:54:24;;;;;;;14.98;7.63;;;;;;;9.32;66.69;100115.94;5094551;28;20537;-64
2021/10/17 16:56:54;;;;;;;14.80;6.90;;;;;;;9.27;66.09;100120.13;5094720;28;20059;-63
2021/10/17 16:59:24;;;;;;;11.50;5.67;;;;;;;9.30;66.46;100120.19;5094946;28;20032;-63
2021/10/17 17:01:53;;;;;;;11.75;6.35;;;;;;;9.06;66.85;100114.78;5095458;28;20434;-63
2021/10/17 17:04:25;;;;;;;12.77;6.88;;;;;;;8.98;67.57;100118.91;5093763;28;20410;-63
2021/10/17 17:06:55;;;;;;;16.40;9.38;;;;;;;9.04;67.47;100131.75;5094367;28;20072;-63
2021/10/17 17:09:26;;;;;;;17.58;9.52;;;;;;;9.06;68.31;100119.88;5094732;28;20497;-63
2021/10/17 17:11:56;;;;;;;18.05;9.85;;;;;;;9.25;67.47;100132.00;5094383;28;20075;-63
2021/10/17 17:14:25;;;;;;;19.17;9.95;;;;;;;9.26;67.98;100133.69;5094354;28;20456;-63
2021/10/17 17:16:54;;;;;;;18.40;9.95;;;;;;;9.32;67.70;100128.69;5094224;28;20481;-63
2021/10/17 17:19:27;;;;;;;17.88;10.07;;;;;;;9.45;67.73;100130.50;5094154;28;20485;-63
2021/10/17 17:21:57;;;;;;;20.77;10.82;;;;;;;9.41;67.59;100136.41;5094126;28;20130;-63
2021/10/17 17:24:27;;;;;;;19.95;11.18;;;;;;;9.37;68.27;100136.38;5094334;28;20071;-63
2021/10/17 17:27:03;;;;;;;21.85;10.90;;;;;;;9.31;68.20;100131.19;5094250;28;20036;-63
2021/10/17 17:29:59;;;;;;;20.58;11.25;;;;;;;9.38;69.03;100138.09;5051771;28;20092;-63
2021/10/17 17:32:28;;;;;;;23.63;12.02;;;;;;;9.49;68.42;100135.66;5051966;28;20077;-63
2021/10/17 17:34:58;;;;;;;18.33;10.88;;;;;;;9.39;68.21;100120.28;5051787;28;20155;-63
2021/10/17 17:37:30;;;;;;;17.67;10.23;;;;;;;9.63;68.04;100139.19;5051614;28;20087;-63
2021/10/17 17:40:04;;;;;;;21.13;11.45;;;;;;;9.65;68.74;100133.28;5051442;28;20556;-63
2021/10/17 17:42:40;;;;;;;21.17;11.60;;;;;;;9.65;68.31;100134.97;5051709;28;20072;-63
2021/10/17 17:45:09;;;;;;;18.55;10.80;;;;;;;9.37;68.52;100110.91;5051641;28;20040;-63
2021/10/17 17:47:38;;;;;;;17.65;9.48;;;;;;;9.44;68.54;100133.91;5064838;28;20055;-63
2021/10/17 17:50:09;;;;;;;18.40;10.25;;;;;;;9.27;68.88;100125.22;5093725;28;20497;-63
2021/10/17 17:52:39;;;;;;;21.00;10.65;;;;;;;8.96;68.78;100119.72;5093765;28;20040;-63
2021/10/17 17:55:10;;;;;;;20.08;10.82;;;;;;;8.90;69.63;100133.22;5093944;28;20040;-62
2021/10/17 17:57:40;;;;;;;17.75;10.88;;;;;;;8.76;69.35;100135.59;5094034;28;20044;-65
2021/10/17 18:00:10;;;;;;;19.92;11.07;;;;;;;8.49;70.04;100135.22;5093942;28;20040;-64
2021/10/17 18:02:41;;;;;;;19.65;11.40;;;;;;;8.44;70.63;100138.53;5094282;28;20450;-64
2021/10/17 18:05:11;;;;;;;21.20;11.75;;;;;;;8.35;70.02;100138.41;5093479;28;20052;-63
2021/10/17 18:07:42;;;;;;;;;;;;;;;8.16;70.77;100138.91;5093984;28;20060;-63
2021/10/17 18:10:15;;;;;;;26.48;13.05;;;;;;;8.21;71.54;100132.19;5093468;28;19926;-63
2021/10/17 18:12:45;;;;;;;21.48;11.50;;;;;;;8.33;71.45;100137.50;5093222;28;20052;-62
2021/10/17 18:15:17;;;;;;;20.83;11.98;;;;;;;8.17;71.72;100130.44;5093234;28;20052;-63
2021/10/17 18:17:52;;;;;;;20.90;12.30;;;;;;;8.25;71.76;100133.97;5093641;28;20047;-63
2021/10/17 18:20:22;;;;;;;20.25;10.40;;;;;;;8.22;71.50;100113.56;5093693;28;20438;-62
2021/10/17 18:22:51;;;;;;;17.83;9.77;;;;;;;8.41;71.23;100134.25;5093422;28;20048;-62
2021/10/17 18:25:22;;;;;;;17.98;9.77;;;;;;;8.19;71.26;100123.69;5093381;28;20063;-62
2021/10/17 18:27:55;;;;;;;16.40;9.15;;;;;;;7.82;71.09;100142.56;5093253;28;20493;-63
2021/10/17 18:30:24;;;;;;;18.35;9.32;;;;;;;7.64;72.14;100143.06;5093597;28;20064;-63
2021/10/17 18:32:54;;;;;;;17.02;9.07;;;;;;;7.71;72.33;100144.03;5096896;28;20432;-63
2021/10/17 18:35:23;;;;;;;19.60;10.95;;;;;;;7.66;72.50;100148.16;5113949;28;20392;-63
2021/10/17 18:37:52;;;;;;;23.83;11.23;;;;;;;7.51;72.75;100140.28;5125832;28;20089;-63
2021/10/17 18:40:24;;;;;;;22.77;12.00;;;;;;;7.66;73.00;100146.50;5134343;27;20051;-63
2021/10/17 18:42:54;;;;;;;19.67;10.30;;;;;;;7.49;72.58;100130.09;5134092;27;20095;-63
2021/10/17 18:45:24;;;;;;;19.67;11.15;;;;;;;7.67;72.61;100153.31;5134451;28;20047;-63
2021/10/17 18:47:56;;;;;;;22.38;11.23;;;;;;;7.54;72.53;100156.44;5134005;28;20035;-63
2021/10/17 18:50:25;;;;;;;23.60;10.82;;;;;;;7.33;72.87;100161.09;5134773;27;20051;-63
2021/10/17 18:52:55;;;;;;;23.00;11.10;;;;;;;7.22;72.82;100162.56;5137990;27;20100;-63
2021/10/17 18:55:26;;;;;;;;;;;;;;;7.07;72.88;100167.31;5138383;27;20438;-63
2021/10/17 18:57:55;;;;;;;20.25;12.57;;;;;;;7.06;72.85;100163.94;5137891;27;19994;-63
2021/10/17 19:00:28;;;;;;;26.13;13.95;;;;;;;7.13;73.37;100172.50;5137547;27;20043;-63
2021/10/17 19:02:58;;;;;;;22.80;13.20;;;;;;;7.20;73.25;100170.13;5138037;27;20088;-63
2021/10/17 19:05:31;;;;;;;25.50;14.63;;;;;;;7.06;73.13;100175.75;5137211;27;20043;-63
2021/10/17 19:08:01;;;;;;;23.88;14.73;;;;;;;6.95;73.38;100174.69;5137667;27;20133;-63
2021/10/17 19:10:35;;;;;;;29.67;16.20;;;;;;;6.75;73.58;100180.16;5137753;27;20057;-63
2021/10/17 19:13:09;;;;;;;24.92;14.90;;;;;;;6.86;73.44;100177.03;5138143;27;20108;-63
2021/10/17 19:15:44;;;;;;;27.77;14.85;;;;;;;6.67;73.57;100151.22;5137570;27;20057;-63
2021/10/17 19:18:17;;;;;;;20.83;12.52;;;;;;;6.97;74.37;100175.56;5137836;27;20074;-63
2021/10/17 19:20:50;;;;;;;25.33;12.85;;;;;;;7.12;73.69;100173.34;5136584;27;20053;-63
2021/10/17 19:23:27;;;;;;;25.00;12.88;;;;;;;6.99;73.55;100173.91;5137403;27;20094;-63
2021/10/17 19:26:01;;;;;;;23.85;13.55;;;;;;;6.88;73.49;100162.69;5137339;27;20043;-63
2021/10/17 19:28:34;;;;;;;20.48;12.00;;;;;;;6.86;73.53;100182.09;5137348;27;20150;-63
2021/10/17 19:31:07;;;;;;;24.00;13.38;;;;;;;6.81;73.36;100184.53;5137317;27;20082;-63
2021/10/17 19:33:36;;;;;;;24.65;13.48;;;;;;;6.69;73.13;100154.66;5137535;27;20046;-63
2021/10/17 19:36:09;;;;;;;23.67;12.20;;;;;;;6.79;72.71;100186.16;5137189;27;20039;-63
2021/10/17 19:38:41;;;;;;;23.38;13.02;;;;;;;6.68;73.15;100193.53;5137474;27;20074;-63
2021/10/17 19:41:15;;;;;;;19.48;11.85;;;;;;;6.57;73.25;100187.38;5137127;27;20078;-63
2021/10/17 19:43:48;;;;;;;19.20;11.70;;;;;;;6.59;73.89;100198.41;5136979;27;20497;-63
2021/10/17 19:46:20;;;;;;;22.48;13.02;;;;;;;6.59;73.76;100203.47;5137292;27;20043;-63
2021/10/17 19:48:53;;;;;;;27.33;11.90;;;;;;;6.45;74.33;100204.84;5136954;27;20043;-63
2021/10/17 19:51:26;;;;;;;22.45;11.93;;;;;;;6.36;74.66;100214.72;5136888;27;20047;-63
2021/10/17 19:53:58;;;;;;;22.02;12.32;;;;;;;6.26;74.83;100211.94;5137183;27;20055;-63
2021/10/17 19:56:32;;;;;;;26.60;13.77;;;;;;;6.25;74.80;100216.16;5137162;27;20058;-63
2021/10/17 19:59:04;;;;;;;24.25;13.40;;;;;;;6.31;75.11;100216.28;5136755;27;20117;-63
2021/10/17 20:01:37;;;;;;;26.58;12.98;;;;;;;6.45;74.96;100214.97;5136601;27;20054;-63
2021/10/17 20:04:10;;;;;;;28.88;14.57;;;;;;;6.54;75.08;100215.19;5135938;27;20480;-63
2021/10/17 20:06:39;;;;;;;27.60;14.10;;;;;;;6.69;74.42;100210.44;5136807;27;20081;-63
2021/10/17 20:09:12;;;;;;;23.35;12.65;;;;;;;6.75;74.38;100215.69;5136555;27;20040;-63
2021/10/17 20:11:43;;;;;;;25.15;13.07;;;;;;;6.77;74.47;100217.41;5136578;27;20047;-63
2021/10/17 20:14:15;;;;;;;23.77;12.30;;;;;;;6.86;74.50;100212.53;5136782;27;20125;-63
2021/10/17 20:16:48;;;;;;;21.50;12.00;;;;;;;6.98;74.17;100217.88;5137044;27;20564;-63
2021/10/17 20:19:37;;;;;;;;;;;;;;;7.03;74.12;100217.16;5136733;27;20050;-63
2021/10/17 20:22:10;;;;;;;24.67;11.40;;;;;;;7.07;73.69;100218.94;5136653;27;20329;-63
2021/10/17 20:24:43;;;;;;;20.45;11.00;;;;;;;7.10;73.79;100219.00;5136258;27;20039;-63
2021/10/17 20:27:17;;;;;;;20.67;11.02;;;;;;;7.08;73.50;100215.56;5136146;27;20088;-63
2021/10/17 20:29:46;;;;;;;20.65;12.10;;;;;;;7.11;73.25;100214.78;5136440;27;20047;-63
2021/10/17 20:32:18;;;;;;;22.83;10.63;;;;;;;7.11;73.19;100225.78;5136386;27;20038;-63
2021/10/17 20:34:51;;;;;;;18.25;9.70;;;;;;;7.13;72.87;100221.59;5135959;27;20053;-63
2021/10/17 20:37:35;;;;;;;18.13;10.77;;;;;;;7.11;72.43;100224.94;5135143;27;20062;-63
2021/10/17 20:40:13;;;;;;;22.02;10.80;;;;;;;7.00;72.51;100223.84;5135863;27;20088;-63
2021/10/17 20:43:01;;;;;;;20.92;10.75;;;;;;;6.88;72.86;100226.09;5135848;27;20053;-63
2021/10/17 20:45:34;;;;;;;19.92;10.13;;;;;;;6.69;72.87;100230.75;5135836;27;20043;-63
2021/10/17 20:48:07;;;;;;;19.83;10.73;;;;;;;6.58;72.92;100237.25;5136026;27;20050;-63
2021/10/17 20:50:37;;;;;;;22.67;11.13;;;;;;;6.63;73.67;100234.81;5135753;27;20050;-63
2021/10/17 20:53:07;;;;;;;21.98;12.35;;;;;;;6.72;73.38;100240.97;5135609;27;20051;-63
2021/10/17 20:55:39;;;;;;;20.08;10.85;;;;;;;6.73;73.43;100230.00;5135626;27;20045;-63
2021/10/17 20:58:13;;;;;;;20.40;11.30;;;;;;;6.81;72.93;100245.41;5135624;27;20093;-63
2021/10/17 21:00:53;;;;;;;21.50;10.52;;;;;;;6.81;73.20;100244.56;5135863;27;20118;-63
2021/10/17 21:03:22;;;;;;;17.58;9.35;;;;;;;6.89;73.20;100238.81;5135062;27;20092;-63
2021/10/17 21:05:56;;;;;;;19.38;10.00;;;;;;;6.90;72.94;100230.41;5135456;27;20039;-63
2021/10/17 21:08:28;;;;;;;19.58;10.10;;;;;;;6.95;72.70;100233.03;5135608;27;20400;-63
2021/10/17 21:11:00;;;;;;;23.63;11.38;;;;;;;6.91;72.71;100246.50;5135357;27;20051;-63
2021/10/17 21:13:34;;;;;;;24.10;11.63;;;;;;;6.70;72.47;100217.25;5133640;27;20064;-63
2021/10/17 21:16:06;;;;;;;22.10;10.85;;;;;;;6.80;72.50;100248.75;5135244;27;20051;-63
2021/10/17 21:18:38;;;;;;;21.42;11.85;;;;;;;6.75;72.92;100246.13;5135508;27;20103;-63
2021/10/17 21:21:11;;;;;;;23.38;11.02;;;;;;;6.74;72.74;100244.38;5135180;27;20070;-63
2021/10/17 21:23:44;;;;;;;22.35;11.07;;;;;;;6.68;73.04;100244.25;5135142;27;20047;-63
2021/10/17 21:26:16;;;;;;;23.17;10.63;;;;;;;6.77;73.34;100242.78;5135324;27;20400;-63
2021/10/17 21:28:50;;;;;;;20.10;10.93;;;;;;;6.84;73.68;100242.09;5134984;27;20093;-63
2021/10/17 21:31:22;;;;;;;26.52;13.20;;;;;;;6.84;73.39;100244.63;5135043;27;20047;-63
2021/10/17 21:33:55;;;;;;;25.50;12.57;;;;;;;6.89;73.51;100243.88;5135574;27;20502;-62
2021/10/17 21:36:28;;;;;;;26.00;12.55;;;;;;;7.00;73.43;100246.69;5134878;27;20492;-63
2021/10/17 21:39:01;;;;;;;24.25;11.65;;;;;;;7.07;73.00;100248.53;5134873;27;20047;-63
2021/10/17 21:41:34;;;;;;;20.02;11.05;;;;;;;7.07;73.40;100258.69;5135195;27;20039;-63
2021/10/17 21:44:07;;;;;;;17.63;10.18;;;;;;;7.03;73.31;100259.44;5134857;27;20047;-63
2021/10/17 21:46:40;;;;;;;15.63;8.65;;;;;;;7.00;73.13;100246.69;5135068;27;20057;-63
2021/10/17 21:49:12;;;;;;;17.88;9.93;;;;;;;7.04;73.19;100248.47;5134672;27;20035;-63
2021/10/17 21:51:44;;;;;;;22.73;10.27;;;;;;;7.10;73.16;100239.28;5134736;27;20054;-63
2021/10/17 21:54:16;;;;;;;15.45;8.77;;;;;;;7.07;72.94;100246.00;5134713;27;20092;-64
2021/10/17 21:56:49;;;;;;;17.17;9.70;;;;;;;7.15;72.94;100241.97;5134621;27;20058;-63
2021/10/17 21:59:23;;;;;;;20.27;10.55;;;;;;;7.17;72.91;100235.22;5134660;27;20559;-63
2021/10/17 22:01:56;;;;;;;19.95;10.25;;;;;;;7.26;72.93;100240.50;5134599;27;20051;-63
2021/10/17 22:04:28;;;;;;;20.77;9.93;;;;;;;7.20;72.86;100235.28;5133766;28;20051;-63
2021/10/17 22:07:01;;;;;;;19.92;10.80;;;;;;;7.12;73.67;100236.81;5134782;28;20135;-63
2021/10/17 22:09:33;;;;;;;21.35;10.30;;;;;;;7.10;74.09;100230.84;5134757;28;20043;-63
2021/10/17 22:12:06;;;;;;;20.13;9.82;;;;;;;7.23;74.12;100226.06;5134829;27;20111;-63
2021/10/17 22:14:40;;;;;;;19.50;9.38;;;;;;;7.35;74.15;100239.00;5134510;27;20054;-63
2021/10/17 22:17:12;;;;;;;19.75;10.23;;;;;;;7.28;74.06;100213.47;5134422;28;20046;-63
2021/10/17 22:19:44;;;;;;;20.08;9.48;;;;;;;7.39;73.88;100238.25;5134469;27;20043;-63
2021/10/17 22:22:17;;;;;;;19.70;10.25;;;;;;;7.47;73.89;100235.88;5134425;28;20047;-63
2021/10/17 22:24:49;;;;;;;18.52;10.07;;;;;;;7.33;73.90;100248.28;5134671;27;20047;-63
2021/10/17 22:27:21;;;;;;;18.48;9.98;;;;;;;7.16;74.55;100243.66;5138253;27;20051;-63
2021/10/17 22:29:58;;;;;;;18.77;10.18;;;;;;;7.27;74.89;100234.63;5138402;27;20047;-62
2021/10/17 22:32:30;;;;;;;17.63;9.43;;;;;;;7.47;74.74;100237.53;5138800;27;20073;-63
2021/10/17 22:35:00;;;;;;;20.38;10.13;;;;;;;7.55;74.99;100243.63;5138417;27;20580;-63
2021/10/17 22:37:33;;;;;;;17.95;10.07;;;;;;;7.54;74.54;100241.91;5137262;27;20055;-63
2021/10/17 22:40:02;;;;;;;17.50;9.77;;;;;;;7.48;74.37;100236.72;5138360;27;20035;-63
2021/10/17 22:42:34;;;;;;;22.55;9.85;;;;;;;7.60;74.49;100248.00;5138295;27;20118;-63
2021/10/17 22:45:07;;;;;;;22.90;9.75;;;;;;;7.67;74.77;100239.66;5138237;27;20540;-63
2021/10/17 22:47:40;;;;;;;18.77;9.70;;;;;;;7.75;74.27;100233.03;5138196;27;20488;-63
2021/10/17 22:50:10;;;;;;;17.77;9.52;;;;;;;7.84;73.50;100247.63;5138320;27;20127;-63
2021/10/17 22:52:43;;;;;;;21.73;9.60;;;;;;;7.80;73.43;100228.03;5138054;27;20105;-63
2021/10/17 22:55:14;;;;;;;19.23;9.27;;;;;;;7.73;73.87;100237.22;5138015;27;20051;-63
2021/10/17 22:57:47;;;;;;;19.15;9.30;;;;;;;7.74;73.73;100238.09;5137959;27;20133;-63
2021/10/17 23:00:21;;;;;;;20.38;9.75;;;;;;;7.75;74.05;100238.13;5137793;27;20044;-63
2021/10/17 23:02:53;;;;;;;18.02;10.05;;;;;;;7.78;73.90;100240.72;5138209;27;20133;-63
2021/10/17 23:05:24;;;;;;;19.60;9.52;;;;;;;7.80;73.94;100236.53;5136916;27;20051;-63
2021/10/17 23:07:56;;;;;;;;;;;;;;;7.82;73.95;100241.66;5138416;27;20043;-63
2021/10/17 23:10:28;;;;;;;16.30;8.93;;;;;;;7.82;74.11;100242.50;5137739;27;19980;-63
2021/10/17 23:13:01;;;;;;;20.45;9.68;;;;;;;7.74;74.13;100246.59;5137641;27;20061;-63
2021/10/17 23:15:35;;;;;;;17.63;9.95;;;;;;;7.68;74.92;100236.28;5137950;27;20561;-63
2021/10/17 23:18:07;;;;;;;18.15;9.80;;;;;;;7.71;74.29;100241.44;5137536;27;20043;-63
2021/10/17 23:20:40;;;;;;;20.02;9.38;;;;;;;7.83;74.37;100245.88;5137830;27;20543;-63
2021/10/17 23:23:12;;;;;;;17.13;8.93;;;;;;;8.00;74.58;100244.53;5137773;27;20494;-63
2021/10/17 23:25:42;;;;;;;17.73;8.52;;;;;;;8.05;74.16;100242.94;5137823;27;20043;-63
2021/10/17 23:28:11;;;;;;;18.73;9.13;;;;;;;8.04;74.54;100242.06;5137223;27;20043;-63
2021/10/17 23:30:42;;;;;;;15.88;9.05;;;;;;;8.08;74.62;100248.94;5137341;27;20047;-63
2021/10/17 23:33:14;;;;;;;16.38;8.93;;;;;;;8.10;74.31;100236.25;5137320;27;20074;-63
2021/10/17 23:35:47;;;;;;;17.80;9.27;;;;;;;8.13;74.00;100246.47;5137258;27;20487;-63
2021/10/17 23:38:19;;;;;;;18.60;9.18;;;;;;;8.09;73.99;100248.09;5136931;27;20510;-63
2021/10/17 23:40:52;;;;;;;16.00;8.45;;;;;;;7.92;73.86;100246.94;5137729;27;20050;-63
2021/10/17 23:43:24;;;;;;;16.35;8.50;;;;;;;7.95;74.62;100246.13;5137477;27;20427;-63
2021/10/17 23:45:58;;;;;;;16.17;8.40;;;;;;;8.02;74.49;100237.78;5137054;27;20044;-63
2021/10/17 23:48:31;;;;;;;16.77;9.95;;;;;;;8.11;74.45;100243.03;5136882;27;20051;-63
2021/10/17 23:51:01;;;;;;;13.05;7.93;;;;;;;8.06;74.35;100245.50;5136981;27;20477;-63
2021/10/17 23:53:33;;;;;;;18.38;8.63;;;;;;;8.00;75.03;100245.38;5137158;27;20514;-63
2021/10/17 23:56:09;;;;;;;16.95;8.10;;;;;;;8.04;74.50;100262.41;5137201;27;20054;-63
2021/10/17 23:58:41;;;;;;;15.60;8.65;;;;;;;7.88;74.97;100244.31;5136765;27;20054;-63
